createdAt,value
2019-02-20T00:00:46.345Z,7.41
2019-02-20T00:01:46.375Z,7.44
2019-02-20T00:02:46.403Z,7.44
2019-02-20T00:03:46.433Z,7.39
2019-02-20T00:04:46.462Z,7.37
2019-02-20T00:05:46.497Z,7.54
2019-02-20T00:06:46.522Z,7.37
2019-02-20T00:07:46.553Z,7.42
2019-02-20T00:08:46.582Z,7.39
2019-02-20T00:09:46.611Z,7.54
2019-02-20T00:10:46.640Z,7.52
2019-02-20T00:11:46.670Z,7.54
2019-02-20T00:12:46.707Z,7.58
2019-02-20T00:13:46.732Z,7.60
2019-02-20T00:14:46.759Z,7.57
2019-02-20T00:15:46.787Z,7.55
2019-02-20T00:16:46.820Z,7.69
2019-02-20T00:17:46.848Z,7.70
2019-02-20T00:18:46.876Z,7.66
2019-02-20T00:19:46.908Z,7.70
2019-02-20T00:20:46.936Z,7.66
2019-02-20T00:21:46.966Z,7.69
2019-02-20T00:22:46.998Z,7.67
2019-02-20T00:23:47.024Z,7.69
2019-02-20T00:24:47.058Z,7.63
2019-02-20T00:25:47.084Z,7.66
2019-02-20T00:26:47.113Z,7.63
2019-02-20T00:27:47.143Z,7.67
2019-02-20T00:28:47.177Z,7.70
2019-02-20T00:29:47.203Z,7.63
2019-02-20T00:30:47.235Z,7.69
2019-02-20T00:31:47.270Z,7.73
2019-02-20T00:32:47.292Z,7.69
2019-02-20T00:33:47.322Z,7.70
2019-02-20T00:34:47.352Z,7.69
2019-02-20T00:35:47.381Z,7.69
2019-02-20T00:36:47.426Z,7.74
2019-02-20T00:37:47.440Z,7.69
2019-02-20T00:38:47.470Z,7.76
2019-02-20T00:39:47.498Z,7.70
2019-02-20T00:40:47.533Z,7.73
2019-02-20T00:41:47.559Z,7.79
2019-02-20T00:42:47.588Z,7.69
2019-02-20T00:43:47.622Z,7.73
2019-02-20T00:44:47.648Z,7.69
2019-02-20T00:45:47.677Z,7.66
2019-02-20T00:46:47.708Z,7.67
2019-02-20T00:47:47.738Z,7.66
2019-02-20T00:48:47.768Z,7.71
2019-02-20T00:49:47.797Z,7.70
2019-02-20T00:50:47.826Z,7.73
2019-02-20T00:51:47.856Z,7.76
2019-02-20T00:52:50.089Z,7.73
2019-02-20T00:53:47.920Z,7.71
2019-02-20T00:54:47.946Z,7.69
2019-02-20T00:55:47.976Z,7.70
2019-02-20T00:56:48.030Z,7.67
2019-02-20T00:57:48.038Z,7.66
2019-02-20T00:58:48.065Z,7.74
2019-02-20T00:59:48.095Z,7.76
2019-02-20T01:00:48.127Z,7.73
2019-02-20T01:01:48.154Z,7.71
2019-02-20T01:02:48.183Z,7.67
2019-02-20T01:03:48.217Z,7.66
2019-02-20T01:04:48.243Z,7.73
2019-02-20T01:05:48.274Z,7.71
2019-02-20T01:06:48.302Z,7.77
2019-02-20T01:07:48.333Z,7.77
2019-02-20T01:08:48.362Z,7.77
2019-02-20T01:09:48.395Z,7.76
2019-02-20T01:10:48.421Z,7.70
2019-02-20T01:11:48.450Z,7.77
2019-02-20T01:12:48.481Z,7.81
2019-02-20T01:13:48.554Z,7.74
2019-02-20T01:14:48.541Z,7.67
2019-02-20T01:15:48.570Z,7.69
2019-02-20T01:16:48.600Z,7.67
2019-02-20T01:17:48.649Z,7.70
2019-02-20T01:18:48.659Z,7.73
2019-02-20T01:19:48.690Z,7.67
2019-02-20T01:20:48.720Z,7.69
2019-02-20T01:21:48.753Z,7.58
2019-02-20T01:22:48.779Z,7.55
2019-02-20T01:23:48.809Z,7.57
2019-02-20T01:24:48.838Z,7.60
2019-02-20T01:25:48.867Z,7.52
2019-02-20T01:26:48.899Z,7.54
2019-02-20T01:27:48.927Z,7.54
2019-02-20T01:28:48.957Z,7.60
2019-02-20T01:29:48.986Z,7.57
2019-02-20T01:30:49.016Z,7.60
2019-02-20T01:31:49.045Z,7.54
2019-02-20T01:32:49.079Z,7.67
2019-02-20T01:33:49.107Z,7.55
2019-02-20T01:34:49.136Z,7.57
2019-02-20T01:35:49.163Z,7.58
2019-02-20T01:36:49.194Z,7.58
2019-02-20T01:37:49.226Z,7.58
2019-02-20T01:38:49.258Z,7.62
2019-02-20T01:39:49.595Z,7.51
2019-02-20T01:40:49.314Z,7.55
2019-02-20T01:41:49.343Z,7.57
2019-02-20T01:42:49.371Z,7.62
2019-02-20T01:43:49.408Z,7.70
2019-02-20T01:44:49.433Z,7.73
2019-02-20T01:45:49.462Z,7.55
2019-02-20T01:46:49.490Z,7.69
2019-02-20T01:47:49.520Z,7.71
2019-02-20T01:48:49.550Z,7.63
2019-02-20T01:49:49.579Z,7.66
2019-02-20T01:50:49.608Z,7.62
2019-02-20T01:51:49.639Z,7.70
2019-02-20T01:52:49.669Z,7.69
2019-02-20T01:53:49.698Z,7.66
2019-02-20T01:54:49.727Z,7.55
2019-02-20T01:55:49.758Z,7.62
2019-02-20T01:56:49.791Z,7.62
2019-02-20T01:57:49.818Z,7.57
2019-02-20T01:58:49.847Z,7.57
2019-02-20T01:59:49.876Z,7.57
2019-02-20T02:00:49.907Z,7.50
2019-02-20T02:01:49.939Z,7.54
2019-02-20T02:02:49.965Z,7.54
2019-02-20T02:03:50.010Z,7.47
2019-02-20T02:04:50.031Z,7.54
2019-02-20T02:05:50.056Z,7.54
2019-02-20T02:06:50.084Z,7.55
2019-02-20T02:07:50.126Z,7.57
2019-02-20T02:08:50.144Z,7.66
2019-02-20T02:09:50.172Z,7.63
2019-02-20T02:10:50.202Z,7.62
2019-02-20T02:11:50.231Z,7.52
2019-02-20T02:12:50.281Z,7.67
2019-02-20T02:13:50.292Z,7.58
2019-02-20T02:14:50.322Z,7.58
2019-02-20T02:15:50.353Z,7.57
2019-02-20T02:16:50.380Z,7.54
2019-02-20T02:17:50.410Z,7.55
2019-02-20T02:18:50.442Z,7.54
2019-02-20T02:19:50.472Z,7.58
2019-02-20T02:20:50.499Z,7.57
2019-02-20T02:21:50.527Z,7.54
2019-02-20T02:22:50.557Z,7.60
2019-02-20T02:23:50.587Z,7.51
2019-02-20T02:24:50.617Z,7.60
2019-02-20T02:25:50.647Z,7.55
2019-02-20T02:26:50.694Z,7.54
2019-02-20T02:27:50.716Z,7.71
2019-02-20T02:28:50.734Z,7.70
2019-02-20T02:29:50.765Z,7.60
2019-02-20T02:30:50.794Z,7.62
2019-02-20T02:31:50.826Z,7.60
2019-02-20T02:32:50.854Z,7.60
2019-02-20T02:33:50.883Z,7.63
2019-02-20T02:34:50.912Z,7.60
2019-02-20T02:35:50.942Z,7.69
2019-02-20T02:36:50.972Z,7.67
2019-02-20T02:37:51.002Z,7.54
2019-02-20T02:38:51.030Z,7.63
2019-02-20T02:39:51.060Z,7.60
2019-02-20T02:40:51.092Z,7.67
2019-02-20T02:41:51.124Z,7.62
2019-02-20T02:42:51.149Z,7.74
2019-02-20T02:43:51.184Z,7.63
2019-02-20T02:44:51.231Z,7.70
2019-02-20T02:45:51.247Z,7.67
2019-02-20T02:46:51.269Z,7.70
2019-02-20T02:47:51.298Z,7.69
2019-02-20T02:48:51.327Z,7.71
2019-02-20T02:49:51.358Z,7.73
2019-02-20T02:50:51.401Z,7.69
2019-02-20T02:51:51.417Z,7.71
2019-02-20T02:52:51.446Z,7.63
2019-02-20T02:53:51.477Z,7.70
2019-02-20T02:54:51.506Z,7.70
2019-02-20T02:55:51.536Z,7.62
2019-02-20T02:56:51.564Z,7.57
2019-02-20T02:57:51.597Z,7.74
2019-02-20T02:58:51.625Z,7.54
2019-02-20T02:59:51.653Z,7.57
2019-02-20T03:00:51.759Z,7.69
2019-02-20T03:01:51.715Z,7.52
2019-02-20T03:02:51.747Z,7.62
2019-02-20T03:03:51.774Z,7.62
2019-02-20T03:04:51.804Z,7.47
2019-02-20T03:05:51.833Z,7.51
2019-02-20T03:06:51.862Z,7.58
2019-02-20T03:07:51.891Z,7.54
2019-02-20T03:08:51.920Z,7.57
2019-02-20T03:09:51.953Z,7.60
2019-02-20T03:10:51.981Z,7.58
2019-02-20T03:11:52.010Z,7.60
2019-02-20T03:12:52.039Z,7.60
2019-02-20T03:13:52.070Z,7.67
2019-02-20T03:14:52.099Z,7.63
2019-02-20T03:15:52.134Z,7.63
2019-02-20T03:16:52.158Z,7.57
2019-02-20T03:17:52.221Z,7.57
2019-02-20T03:18:52.218Z,7.60
2019-02-20T03:19:52.251Z,7.60
2019-02-20T03:20:52.277Z,7.52
2019-02-20T03:21:52.310Z,7.50
2019-02-20T03:22:52.338Z,7.50
2019-02-20T03:23:52.366Z,7.52
2019-02-20T03:24:52.396Z,7.44
2019-02-20T03:25:52.427Z,7.42
2019-02-20T03:26:52.459Z,7.42
2019-02-20T03:27:52.486Z,7.42
2019-02-20T03:28:52.514Z,7.42
2019-02-20T03:29:52.545Z,7.45
2019-02-20T03:30:52.575Z,7.47
2019-02-20T03:31:52.605Z,7.39
2019-02-20T03:32:52.635Z,7.47
2019-02-20T03:33:52.669Z,7.39
2019-02-20T03:34:52.693Z,7.37
2019-02-20T03:35:52.722Z,7.44
2019-02-20T03:36:52.793Z,7.47
2019-02-20T03:37:52.782Z,7.51
2019-02-20T03:38:52.811Z,7.50
2019-02-20T03:39:52.841Z,7.58
2019-02-20T03:40:52.874Z,7.57
2019-02-20T03:41:52.907Z,7.54
2019-02-20T03:42:52.930Z,7.58
2019-02-20T03:43:52.974Z,7.63
2019-02-20T03:44:52.993Z,7.62
2019-02-20T03:45:53.020Z,7.55
2019-02-20T03:46:53.050Z,7.57
2019-02-20T03:47:53.078Z,7.54
2019-02-20T03:48:53.110Z,7.63
2019-02-20T03:49:53.151Z,7.63
2019-02-20T03:50:53.168Z,7.69
2019-02-20T03:51:53.207Z,7.73
2019-02-20T03:52:53.228Z,7.69
2019-02-20T03:53:53.259Z,7.69
2019-02-20T03:54:53.286Z,7.73
2019-02-20T03:55:53.317Z,7.66
2019-02-20T03:56:53.346Z,7.67
2019-02-20T03:57:53.376Z,7.63
2019-02-20T03:58:53.407Z,7.69
2019-02-20T03:59:53.435Z,7.67
2019-02-20T04:00:53.503Z,7.71
2019-02-20T04:01:53.495Z,7.69
2019-02-20T04:02:53.523Z,7.67
2019-02-20T04:03:53.555Z,7.76
2019-02-20T04:04:53.584Z,7.71
2019-02-20T04:05:53.614Z,7.69
2019-02-20T04:06:53.677Z,7.69
2019-02-20T04:07:53.675Z,7.74
2019-02-20T04:08:53.704Z,7.71
2019-02-20T04:09:53.733Z,7.76
2019-02-20T04:10:53.763Z,7.81
2019-02-20T04:11:53.795Z,7.76
2019-02-20T04:12:53.822Z,7.71
2019-02-20T04:13:53.852Z,7.76
2019-02-20T04:14:53.883Z,7.77
2019-02-20T04:15:53.911Z,7.74
2019-02-20T04:16:53.940Z,7.71
2019-02-20T04:17:53.972Z,7.76
2019-02-20T04:18:54.000Z,7.79
2019-02-20T04:19:54.032Z,7.77
2019-02-20T04:20:54.062Z,7.79
2019-02-20T04:21:54.091Z,7.84
2019-02-20T04:22:54.120Z,7.85
2019-02-20T04:24:01.997Z,7.88
2019-02-20T04:24:54.180Z,7.84
2019-02-20T04:25:54.226Z,7.81
2019-02-20T04:26:54.239Z,7.84
2019-02-20T04:27:54.288Z,7.85
2019-02-20T04:28:54.345Z,7.77
2019-02-20T04:29:54.342Z,7.77
2019-02-20T04:30:54.357Z,7.79
2019-02-20T04:31:54.391Z,7.84
2019-02-20T04:32:54.419Z,7.81
2019-02-20T04:33:54.448Z,7.85
2019-02-20T04:34:54.478Z,7.79
2019-02-20T04:35:54.507Z,7.89
2019-02-20T04:36:54.540Z,7.92
2019-02-20T04:37:54.573Z,7.85
2019-02-20T04:38:54.597Z,7.86
2019-02-20T04:39:54.631Z,7.82
2019-02-20T04:40:54.655Z,7.86
2019-02-20T04:41:54.686Z,7.84
2019-02-20T04:42:54.715Z,7.81
2019-02-20T04:43:54.745Z,7.86
2019-02-20T04:44:54.775Z,7.86
2019-02-20T04:45:54.811Z,7.84
2019-02-20T04:46:54.835Z,7.86
2019-02-20T04:47:54.864Z,7.91
2019-02-20T04:48:54.895Z,7.94
2019-02-20T04:49:54.924Z,7.91
2019-02-20T04:50:54.958Z,7.85
2019-02-20T04:51:54.983Z,7.88
2019-02-20T04:52:55.015Z,7.92
2019-02-20T04:53:55.043Z,7.94
2019-02-20T04:54:55.074Z,8.03
2019-02-20T04:55:55.104Z,8.03
2019-02-20T04:56:55.133Z,8.00
2019-02-20T04:57:55.163Z,8.06
2019-02-20T04:58:55.200Z,8.06
2019-02-20T04:59:55.249Z,8.09
2019-02-20T05:00:55.253Z,8.09
2019-02-20T05:01:55.283Z,8.06
2019-02-20T05:02:55.311Z,8.06
2019-02-20T05:03:55.343Z,8.10
2019-02-20T05:04:55.380Z,8.09
2019-02-20T05:05:55.404Z,8.07
2019-02-20T05:06:55.433Z,8.07
2019-02-20T05:07:55.463Z,8.07
2019-02-20T05:08:55.501Z,8.04
2019-02-20T05:09:55.525Z,8.07
2019-02-20T05:10:55.551Z,8.07
2019-02-20T05:11:55.615Z,8.07
2019-02-20T05:12:55.620Z,8.06
2019-02-20T05:13:55.643Z,8.04
2019-02-20T05:14:55.672Z,8.07
2019-02-20T05:15:55.709Z,8.04
2019-02-20T05:16:55.731Z,8.07
2019-02-20T05:17:55.762Z,8.03
2019-02-20T05:18:55.794Z,8.07
2019-02-20T05:19:55.827Z,8.10
2019-02-20T05:20:55.850Z,8.09
2019-02-20T05:21:55.882Z,8.07
2019-02-20T05:22:55.910Z,8.09
2019-02-20T05:23:55.953Z,8.13
2019-02-20T05:24:55.970Z,8.12
2019-02-20T05:25:56.001Z,8.14
2019-02-20T05:26:56.029Z,8.04
2019-02-20T05:27:56.060Z,8.04
2019-02-20T05:28:56.098Z,8.07
2019-02-20T05:29:56.121Z,8.10
2019-02-20T05:30:56.148Z,8.07
2019-02-20T05:31:56.182Z,8.07
2019-02-20T05:32:56.210Z,8.10
2019-02-20T05:33:56.246Z,8.04
2019-02-20T05:34:56.269Z,8.04
2019-02-20T05:35:56.308Z,8.09
2019-02-20T05:36:56.332Z,8.12
2019-02-20T05:37:56.368Z,8.04
2019-02-20T05:38:56.400Z,8.03
2019-02-20T05:39:56.444Z,8.07
2019-02-20T05:40:56.451Z,8.02
2019-02-20T05:41:56.499Z,8.07
2019-02-20T05:42:56.522Z,8.04
2019-02-20T05:43:56.558Z,8.06
2019-02-20T05:44:56.570Z,8.09
2019-02-20T05:45:56.599Z,8.06
2019-02-20T05:46:56.627Z,8.18
2019-02-20T05:47:56.665Z,8.21
2019-02-20T05:48:56.690Z,8.14
2019-02-20T05:49:56.718Z,8.10
2019-02-20T05:50:56.747Z,8.10
2019-02-20T05:51:56.841Z,8.14
2019-02-20T05:52:56.812Z,8.09
2019-02-20T05:53:56.843Z,8.06
2019-02-20T05:54:56.867Z,8.03
2019-02-20T05:55:56.905Z,8.07
2019-02-20T05:56:56.933Z,8.06
2019-02-20T05:57:56.980Z,8.07
2019-02-20T05:58:56.989Z,8.09
2019-02-20T05:59:57.026Z,8.10
2019-02-20T06:00:57.049Z,8.07
2019-02-20T06:01:57.100Z,8.10
2019-02-20T06:02:57.107Z,8.18
2019-02-20T06:03:57.138Z,8.17
2019-02-20T06:04:57.168Z,8.20
2019-02-20T06:05:57.206Z,8.20
2019-02-20T06:06:57.240Z,8.14
2019-02-20T06:07:57.288Z,8.07
2019-02-20T06:08:57.289Z,8.14
2019-02-20T06:09:57.322Z,8.02
2019-02-20T06:10:57.349Z,8.06
2019-02-20T06:11:57.383Z,8.04
2019-02-20T06:12:57.407Z,8.07
2019-02-20T06:13:57.441Z,8.07
2019-02-20T06:14:57.469Z,8.06
2019-02-20T06:15:57.503Z,8.06
2019-02-20T06:16:57.527Z,8.10
2019-02-20T06:17:57.559Z,8.07
2019-02-20T06:18:57.587Z,8.06
2019-02-20T06:19:57.616Z,8.07
2019-02-20T06:20:57.648Z,8.09
2019-02-20T06:21:57.677Z,8.03
2019-02-20T06:22:57.707Z,8.04
2019-02-20T06:23:57.735Z,8.07
2019-02-20T06:24:57.769Z,8.04
2019-02-20T06:25:57.802Z,7.94
2019-02-20T06:26:57.829Z,8.02
2019-02-20T06:27:57.857Z,8.00
2019-02-20T06:28:57.887Z,8.02
2019-02-20T06:29:57.915Z,8.06
2019-02-20T06:30:57.943Z,7.96
2019-02-20T06:31:57.980Z,8.02
2019-02-20T06:32:58.006Z,8.07
2019-02-20T06:33:58.037Z,8.04
2019-02-20T06:34:58.063Z,8.06
2019-02-20T06:35:58.095Z,8.04
2019-02-20T06:36:58.125Z,8.07
2019-02-20T06:37:58.157Z,8.12
2019-02-20T06:38:58.185Z,8.10
2019-02-20T06:39:58.215Z,8.12
2019-02-20T06:40:58.249Z,8.17
2019-02-20T06:41:58.299Z,8.24
2019-02-20T06:42:58.302Z,8.17
2019-02-20T06:43:58.335Z,8.18
2019-02-20T06:44:58.363Z,8.24
2019-02-20T06:45:58.393Z,8.21
2019-02-20T06:46:58.423Z,8.28
2019-02-20T06:47:58.453Z,8.31
2019-02-20T06:48:58.482Z,8.24
2019-02-20T06:50:00.975Z,8.27
2019-02-20T06:50:58.542Z,8.18
2019-02-20T06:51:58.573Z,8.32
2019-02-20T06:52:58.602Z,8.28
2019-02-20T06:53:58.635Z,8.22
2019-02-20T06:54:58.662Z,8.24
2019-02-20T06:55:58.693Z,8.18
2019-02-20T06:56:58.722Z,8.25
2019-02-20T06:57:58.752Z,8.39
2019-02-20T06:58:58.783Z,8.36
2019-02-20T06:59:58.812Z,8.37
2019-02-20T07:00:58.845Z,8.46
2019-02-20T07:01:58.872Z,8.49
2019-02-20T07:02:58.905Z,8.50
2019-02-20T07:03:58.931Z,8.58
2019-02-20T07:04:58.961Z,8.60
2019-02-20T07:05:58.992Z,8.68
2019-02-20T07:06:59.021Z,8.71
2019-02-20T07:07:59.054Z,8.83
2019-02-20T07:08:59.080Z,8.88
2019-02-20T07:09:59.111Z,8.83
2019-02-20T07:10:59.140Z,8.89
2019-02-20T07:11:59.172Z,8.98
2019-02-20T07:12:59.201Z,9.12
2019-02-20T07:13:59.237Z,9.06
2019-02-20T07:14:59.262Z,9.13
2019-02-20T07:15:59.327Z,9.16
2019-02-20T07:16:59.321Z,9.24
2019-02-20T07:17:59.353Z,9.24
2019-02-20T07:18:59.385Z,9.30
2019-02-20T07:19:59.412Z,9.30
2019-02-20T07:20:59.443Z,9.24
2019-02-20T07:21:59.472Z,9.30
2019-02-20T07:22:59.502Z,9.34
2019-02-20T07:23:59.537Z,9.41
2019-02-20T07:25:02.975Z,9.31
2019-02-20T07:25:59.598Z,9.35
2019-02-20T07:26:59.626Z,9.34
2019-02-20T07:27:59.654Z,9.27
2019-02-20T07:28:59.684Z,9.30
2019-02-20T07:29:59.716Z,9.30
2019-02-20T07:30:59.746Z,9.32
2019-02-20T07:31:59.778Z,9.32
2019-02-20T07:32:59.981Z,9.35
2019-02-20T07:33:59.839Z,9.34
2019-02-20T07:34:59.888Z,9.40
2019-02-20T07:35:59.899Z,9.40
2019-02-20T07:36:59.943Z,9.35
2019-02-20T07:37:59.958Z,9.37
2019-02-20T07:38:59.988Z,9.44
2019-02-20T07:40:00.066Z,9.41
2019-02-20T07:41:00.048Z,9.42
2019-02-20T07:42:00.079Z,9.45
2019-02-20T07:43:00.155Z,9.41
2019-02-20T07:44:00.145Z,9.35
2019-02-20T07:45:00.184Z,9.27
2019-02-20T07:46:00.205Z,9.24
2019-02-20T07:47:00.236Z,9.24
2019-02-20T07:48:00.266Z,9.22
2019-02-20T07:49:00.310Z,9.17
2019-02-20T07:50:00.403Z,9.15
2019-02-20T07:51:00.352Z,9.03
2019-02-20T07:52:00.385Z,9.06
2019-02-20T07:53:00.440Z,8.93
2019-02-20T07:54:00.445Z,8.83
2019-02-20T07:55:00.486Z,8.85
2019-02-20T07:56:00.510Z,8.83
2019-02-20T07:57:00.539Z,8.88
2019-02-20T07:58:00.566Z,8.86
2019-02-20T07:59:00.601Z,8.91
2019-02-20T08:00:00.630Z,8.88
2019-02-20T08:01:00.658Z,8.82
2019-02-20T08:02:00.691Z,8.79
2019-02-20T08:03:00.729Z,8.85
2019-02-20T08:04:00.752Z,8.76
2019-02-20T08:05:00.781Z,8.75
2019-02-20T08:06:00.812Z,8.91
2019-02-20T08:07:00.840Z,8.76
2019-02-20T08:08:00.871Z,8.82
2019-02-20T08:09:00.901Z,8.79
2019-02-20T08:10:00.931Z,8.65
2019-02-20T08:11:00.966Z,8.65
2019-02-20T08:12:00.993Z,8.75
2019-02-20T08:13:01.022Z,8.67
2019-02-20T08:14:01.052Z,8.68
2019-02-20T08:15:01.083Z,8.61
2019-02-20T08:16:01.112Z,8.67
2019-02-20T08:17:01.142Z,8.67
2019-02-20T08:18:01.173Z,8.65
2019-02-20T08:19:01.204Z,8.61
2019-02-20T08:20:01.233Z,8.63
2019-02-20T08:21:01.270Z,8.65
2019-02-20T08:22:01.295Z,8.57
2019-02-20T08:23:01.359Z,8.58
2019-02-20T08:24:01.360Z,8.68
2019-02-20T08:25:01.385Z,8.60
2019-02-20T08:26:01.416Z,8.61
2019-02-20T08:27:01.444Z,8.73
2019-02-20T08:28:01.476Z,8.63
2019-02-20T08:29:01.505Z,8.63
2019-02-20T08:30:01.537Z,8.58
2019-02-20T08:31:01.565Z,8.57
2019-02-20T08:32:01.595Z,8.57
2019-02-20T08:33:01.626Z,8.64
2019-02-20T08:34:01.657Z,8.64
2019-02-20T08:35:01.686Z,8.70
2019-02-20T08:36:01.716Z,8.78
2019-02-20T08:37:01.748Z,8.75
2019-02-20T08:38:01.787Z,8.78
2019-02-20T08:39:01.809Z,8.85
2019-02-20T08:40:01.838Z,8.93
2019-02-20T08:41:01.868Z,8.88
2019-02-20T08:42:01.901Z,8.94
2019-02-20T08:43:01.935Z,9.16
2019-02-20T08:44:01.969Z,9.10
2019-02-20T08:45:01.994Z,9.23
2019-02-20T08:46:02.022Z,9.32
2019-02-20T08:47:02.050Z,9.37
2019-02-20T08:48:02.080Z,9.52
2019-02-20T08:49:02.116Z,9.50
2019-02-20T08:50:02.142Z,9.67
2019-02-20T08:51:02.172Z,9.67
2019-02-20T08:52:02.213Z,9.81
2019-02-20T08:53:02.232Z,9.93
2019-02-20T08:54:04.353Z,9.93
2019-02-20T08:55:02.295Z,9.89
2019-02-20T08:56:02.325Z,9.96
2019-02-20T08:57:02.355Z,10.02
2019-02-20T08:58:02.389Z,10.09
2019-02-20T08:59:02.416Z,9.98
2019-02-20T09:00:02.448Z,10.13
2019-02-20T09:01:02.480Z,10.14
2019-02-20T09:02:02.510Z,10.17
2019-02-20T09:03:02.540Z,10.13
2019-02-20T09:04:02.572Z,10.17
2019-02-20T09:05:02.600Z,10.17
2019-02-20T09:06:02.632Z,10.14
2019-02-20T09:07:02.662Z,10.14
2019-02-20T09:08:02.693Z,10.09
2019-02-20T09:09:02.724Z,10.16
2019-02-20T09:10:02.760Z,10.18
2019-02-20T09:11:02.797Z,10.20
2019-02-20T09:12:02.815Z,10.18
2019-02-20T09:13:02.896Z,10.25
2019-02-20T09:14:02.878Z,10.20
2019-02-20T09:15:02.911Z,10.22
2019-02-20T09:16:02.943Z,10.07
2019-02-20T09:17:02.983Z,10.04
2019-02-20T09:18:03.003Z,10.09
2019-02-20T09:19:03.031Z,10.07
2019-02-20T09:20:03.066Z,9.92
2019-02-20T09:21:03.096Z,9.91
2019-02-20T09:22:03.126Z,9.89
2019-02-20T09:23:03.155Z,9.93
2019-02-20T09:24:03.190Z,9.95
2019-02-20T09:25:03.218Z,9.88
2019-02-20T09:26:03.250Z,9.89
2019-02-20T09:27:03.280Z,9.89
2019-02-20T09:28:03.312Z,9.92
2019-02-20T09:29:03.341Z,9.93
2019-02-20T09:30:03.373Z,9.98
2019-02-20T09:31:03.417Z,9.86
2019-02-20T09:32:03.440Z,9.93
2019-02-20T09:33:03.467Z,9.91
2019-02-20T09:34:03.497Z,9.88
2019-02-20T09:35:05.387Z,9.78
2019-02-20T09:36:03.557Z,9.81
2019-02-20T09:37:03.588Z,9.92
2019-02-20T09:38:03.619Z,9.91
2019-02-20T09:39:03.651Z,9.98
2019-02-20T09:40:03.680Z,9.95
2019-02-20T09:41:03.712Z,9.99
2019-02-20T09:42:03.744Z,9.98
2019-02-20T09:43:03.775Z,10.14
2019-02-20T09:44:03.805Z,10.17
2019-02-20T09:45:03.836Z,10.24
2019-02-20T09:46:03.870Z,10.34
2019-02-20T09:47:03.897Z,10.46
2019-02-20T09:48:03.950Z,10.54
2019-02-20T09:49:03.960Z,10.57
2019-02-20T09:50:04.002Z,10.62
2019-02-20T09:51:04.021Z,10.57
2019-02-20T09:52:04.053Z,10.47
2019-02-20T09:53:04.085Z,10.39
2019-02-20T09:54:04.115Z,10.42
2019-02-20T09:55:04.145Z,10.46
2019-02-20T09:56:04.177Z,10.38
2019-02-20T09:57:04.214Z,10.47
2019-02-20T09:58:04.240Z,10.52
2019-02-20T09:59:04.269Z,10.55
2019-02-20T10:00:04.302Z,10.65
2019-02-20T10:01:04.339Z,10.78
2019-02-20T10:02:04.370Z,10.95
2019-02-20T10:03:04.399Z,11.05
2019-02-20T10:04:04.425Z,11.19
2019-02-20T10:05:04.461Z,11.19
2019-02-20T10:06:04.489Z,11.17
2019-02-20T10:07:04.520Z,11.27
2019-02-20T10:08:04.629Z,11.24
2019-02-20T10:09:04.585Z,11.16
2019-02-20T10:10:04.614Z,11.11
2019-02-20T10:11:04.644Z,11.03
2019-02-20T10:12:04.677Z,10.94
2019-02-20T10:13:04.707Z,11.02
2019-02-20T10:14:04.741Z,11.08
2019-02-20T10:15:04.770Z,11.24
2019-02-20T10:16:04.804Z,11.38
2019-02-20T10:17:04.834Z,11.53
2019-02-20T10:18:04.867Z,11.69
2019-02-20T10:19:04.898Z,11.88
2019-02-20T10:20:04.930Z,12.08
2019-02-20T10:21:04.961Z,12.36
2019-02-20T10:22:04.994Z,12.44
2019-02-20T10:23:05.025Z,12.74
2019-02-20T10:24:05.058Z,12.81
2019-02-20T10:25:05.091Z,12.92
2019-02-20T10:26:05.124Z,12.99
2019-02-20T10:27:05.157Z,13.04
2019-02-20T10:28:05.188Z,13.04
2019-02-20T10:29:05.221Z,12.96
2019-02-20T10:30:05.254Z,12.96
2019-02-20T10:31:05.286Z,12.88
2019-02-20T10:32:05.320Z,12.85
2019-02-20T10:33:05.352Z,12.61
2019-02-20T10:34:05.386Z,12.38
2019-02-20T10:35:05.418Z,12.26
2019-02-20T10:36:05.449Z,12.13
2019-02-20T10:37:05.485Z,12.12
2019-02-20T10:38:05.517Z,12.15
2019-02-20T10:39:05.549Z,12.21
2019-02-20T10:40:05.585Z,12.37
2019-02-20T10:41:05.614Z,12.56
2019-02-20T10:42:05.652Z,12.66
2019-02-20T10:43:05.680Z,12.85
2019-02-20T10:44:05.714Z,12.73
2019-02-20T10:45:05.745Z,12.89
2019-02-20T10:46:05.778Z,12.89
2019-02-20T10:47:05.811Z,12.87
2019-02-20T10:48:05.843Z,12.95
2019-02-20T10:49:05.877Z,12.95
2019-02-20T10:50:05.910Z,13.17
2019-02-20T10:51:05.945Z,13.29
2019-02-20T10:52:05.974Z,13.43
2019-02-20T10:53:06.008Z,13.51
2019-02-20T10:54:06.043Z,13.51
2019-02-20T10:55:06.074Z,13.54
2019-02-20T10:56:09.293Z,13.62
2019-02-20T10:57:06.139Z,13.68
2019-02-20T10:58:06.174Z,13.65
2019-02-20T10:59:06.220Z,13.68
2019-02-20T11:00:06.239Z,13.68
2019-02-20T11:01:06.272Z,13.55
2019-02-20T11:02:06.304Z,13.44
2019-02-20T11:03:06.337Z,13.21
2019-02-20T11:04:06.373Z,13.06
2019-02-20T11:05:06.404Z,12.81
2019-02-20T11:06:06.436Z,12.77
2019-02-20T11:07:06.474Z,12.59
2019-02-20T11:08:06.501Z,12.37
2019-02-20T11:09:06.537Z,12.54
2019-02-20T11:10:06.569Z,12.46
2019-02-20T11:11:06.602Z,12.40
2019-02-20T11:12:06.636Z,12.54
2019-02-20T11:13:06.667Z,12.44
2019-02-20T11:14:06.702Z,12.58
2019-02-20T11:15:06.734Z,12.63
2019-02-20T11:16:06.766Z,12.66
2019-02-20T11:17:06.800Z,12.73
2019-02-20T11:18:06.832Z,12.70
2019-02-20T11:19:06.863Z,12.88
2019-02-20T11:20:06.895Z,13.14
2019-02-20T11:21:06.929Z,13.44
2019-02-20T11:22:06.964Z,13.83
2019-02-20T11:23:06.993Z,13.94
2019-02-20T11:24:07.028Z,14.23
2019-02-20T11:25:07.060Z,14.27
2019-02-20T11:26:07.093Z,14.49
2019-02-20T11:27:07.133Z,14.60
2019-02-20T11:28:07.159Z,14.75
2019-02-20T11:29:07.192Z,14.69
2019-02-20T11:30:07.359Z,14.80
2019-02-20T11:31:07.259Z,14.80
2019-02-20T11:32:07.294Z,14.95
2019-02-20T11:33:07.327Z,14.79
2019-02-20T11:34:07.359Z,14.86
2019-02-20T11:35:07.392Z,14.85
2019-02-20T11:36:07.425Z,14.91
2019-02-20T11:37:07.459Z,14.98
2019-02-20T11:38:07.494Z,14.90
2019-02-20T11:39:07.530Z,14.98
2019-02-20T11:40:07.562Z,14.93
2019-02-20T11:41:07.594Z,15.01
2019-02-20T11:42:07.627Z,14.95
2019-02-20T11:43:07.660Z,15.07
2019-02-20T11:44:07.694Z,15.16
2019-02-20T11:45:07.729Z,15.22
2019-02-20T11:46:07.763Z,15.41
2019-02-20T11:47:07.796Z,15.58
2019-02-20T11:48:07.830Z,15.95
2019-02-20T11:49:07.871Z,16.45
2019-02-20T11:50:07.972Z,17.05
2019-02-20T11:51:07.934Z,17.62
2019-02-20T11:52:07.965Z,18.20
2019-02-20T11:53:08.001Z,18.76
2019-02-20T11:54:08.035Z,19.20
2019-02-20T11:55:08.069Z,19.42
2019-02-20T11:56:08.107Z,19.49
2019-02-20T11:57:08.153Z,19.39
2019-02-20T11:58:08.174Z,19.07
2019-02-20T11:59:08.207Z,18.71
2019-02-20T12:00:08.243Z,18.23
2019-02-20T12:01:08.279Z,17.40
2019-02-20T12:02:08.313Z,17.06
2019-02-20T12:03:08.349Z,16.57
2019-02-20T12:04:08.384Z,16.18
2019-02-20T12:05:08.419Z,15.85
2019-02-20T12:06:08.454Z,15.58
2019-02-20T12:07:08.489Z,15.30
2019-02-20T12:08:08.522Z,14.93
2019-02-20T12:09:08.556Z,14.79
2019-02-20T12:10:08.591Z,14.66
2019-02-20T12:11:08.625Z,14.52
2019-02-20T12:12:09.472Z,14.24
2019-02-20T12:13:08.695Z,14.30
2019-02-20T12:14:08.732Z,14.31
2019-02-20T12:15:08.762Z,14.46
2019-02-20T12:16:08.801Z,14.60
2019-02-20T12:17:08.832Z,14.72
2019-02-20T12:18:16.990Z,14.64
2019-02-20T12:19:08.903Z,14.90
2019-02-20T12:20:08.935Z,14.94
2019-02-20T12:21:08.972Z,15.09
2019-02-20T12:22:09.002Z,15.51
2019-02-20T12:23:09.039Z,15.58
2019-02-20T12:24:09.072Z,15.78
2019-02-20T12:25:09.106Z,16.06
2019-02-20T12:26:09.140Z,16.59
2019-02-20T12:27:09.174Z,17.21
2019-02-20T12:28:09.207Z,17.66
2019-02-20T12:29:11.155Z,18.07
2019-02-20T12:30:09.278Z,18.36
2019-02-20T12:31:09.311Z,18.44
2019-02-20T12:32:09.346Z,17.99
2019-02-20T12:33:09.382Z,17.70
2019-02-20T12:34:09.418Z,17.43
2019-02-20T12:35:09.459Z,17.47
2019-02-20T12:36:09.488Z,17.86
2019-02-20T12:37:09.522Z,18.47
2019-02-20T12:38:09.559Z,19.25
2019-02-20T12:39:09.594Z,20.15
2019-02-20T12:40:09.629Z,20.58
2019-02-20T12:41:10.903Z,20.87
2019-02-20T12:42:09.706Z,21.63
2019-02-20T12:43:09.739Z,22.20
2019-02-20T12:44:09.777Z,22.96
2019-02-20T12:45:09.810Z,23.42
2019-02-20T12:46:09.846Z,23.31
2019-02-20T12:47:09.883Z,22.85
2019-02-20T12:48:09.925Z,22.41
2019-02-20T12:49:09.960Z,21.91
2019-02-20T12:50:09.995Z,21.13
2019-02-20T12:51:10.033Z,20.61
2019-02-20T12:52:10.069Z,20.01
2019-02-20T12:53:10.107Z,19.57
2019-02-20T12:54:10.145Z,19.05
2019-02-20T12:55:10.184Z,18.74
2019-02-20T12:56:10.387Z,18.29
2019-02-20T12:57:10.413Z,17.92
2019-02-20T12:58:10.292Z,17.58
2019-02-20T12:59:10.331Z,17.33
2019-02-20T13:00:10.369Z,17.03
2019-02-20T13:01:10.402Z,16.96
2019-02-20T13:02:10.437Z,16.72
2019-02-20T13:03:10.476Z,16.54
2019-02-20T13:04:10.514Z,16.44
2019-02-20T13:05:10.548Z,16.22
2019-02-20T13:06:10.582Z,16.10
2019-02-20T13:07:10.617Z,16.10
2019-02-20T13:08:10.654Z,16.26
2019-02-20T13:09:10.690Z,16.41
2019-02-20T13:10:10.726Z,16.65
2019-02-20T13:11:10.761Z,16.84